Salida, CO

00:31 MDT le 31 août 2014 (GMT -0600)
Salida | Change Station
CLOSE
Current Station
Aéroport
Location: Salida,
Altitude: 7523 ft
Stations météo à proximité

Alt. 7523 ft 38.54 °N, 106.05 °W | Updated 16 minutes ago

Clear
Ciel dégagé
55 ° F
Paraît 55 ° F
N
5
Vent Variable Vent de ONO

Aujourd'hui
Haut(e) -- | Bas -- ° F
--% Risque de précip.
Hier
Haut(e) -- | Bas -- ° F
Precip. -- pouce
6:32 AM 7:35 PM
Lune montante, 28% visible
Pression 30.22 pouce
Visibilité 10.0 Miles terrestres
Nuages Ciel dégagé
Point de rosée 41 ° F
Humidité 60%
Précipitations 0.00 pouce
Profondeur de la couche neigeuse Non disponible.
UV 0 sur 12
Pollen 10.20 sur 12
Qualité de l'air Non disponible.
Flu Activity Non disponible.
METAR KANK 310615Z AUTO 30004KT 10SM CLR 13/05 A3022 RMK AO1 T01270051

More Conditions Fewer Conditions

Pression 30.22 pouce
Visibilité 10.0 Miles terrestres
Nuages Ciel dégagé
Point de rosée 41 ° F
Humidité 60%
Précipitations 0.00 pouce
Profondeur de la couche neigeuse Non disponible.
UV 0 sur 12
Pollen 10.20 sur 12
Qualité de l'air Non disponible.
Flu Activity Non disponible.
METAR KANK 310615Z AUTO 30004KT 10SM CLR 13/05 A3022 RMK AO1 T01270051

More Conditions Fewer Conditions

10-Day Weather Forecast

Almanac

Astronomie

Aug. 31, 2014 Lever Coucher
Temps réel 06:32 MDT 19:35 MDT
Crépuscule civil 06:05 MDT 20:02 MDT
Crépuscule nautique 05:33 MDT 20:35 MDT
Crépuscule astronomique 04:59 MDT 21:08 MDT
Lune 12:17 MDT 22:57 MDT
Durée de lumière visible 13h 57m
Longueur du jour
13h 02m
Tomorrow will be 2m 23s shorter.
Lune montante, 28% of the Moon is Illuminated
Aujourd'hui
Lune montante
Sep 2
Premier quartier
Sep 8
Pleine lune
Sep 15
Dernier quartier
Sep 24
Nouveau

Community

WunderPhotos

Upload Photos

1,748,801 Photos téléchargées !

Nearby

Épaisseur de neige

Station Depth Altitude
Porphyry Creek 0 in 10760 ft
Rough And Tumble 1 in 10360 ft
Park Cone 0 in 9600 ft
Brumley 0 in 10600 ft
Independence Pass 190 in 10600 ft

Activité sismique

Ville Distance Mag. Time & Date
No recent earthquake activity has been reported nearby.
Minimum magnitude displayed is 2.5.

Températures des eaux côtières

Lieu Température
Aucun rapport de station

Stations météo à proximité